Main page
METAR-TAF:

METAR-TAF

Airports :

Yakutsk, Russia

Yakutsk Airport

latitude: 62-01N, longitude: 129-43E, elevation: 103 m

Current weather observation

The report was made 21 minutes ago, at 11:30 UTC
Wind 6 kt from the West/Southwest
Temperature -34°C
Humidity 74%
Pressure 1003 hPa
Visibility 10 km or more
no clouds below 1500 m and no cumulonimbus

METAR: UEEE 201130Z 25003MPS CAVOK M34/M37 Q1003 R23L/490150 NOSIG RMK QFE744

Time: 20:51 (11:51 UTC)

Forecast

The report was made 51 minutes ago, at 11:00 UTC
Forecast valid from 20 at 12 UTC to 21 at 18 UTC
Wind 6 kt from the West
Visibility: 3200 m
Scattered clouds at a height of 2000 ft
Broken clouds at a height of 7000 ft
light snow, mist
Temporary
from 20 at 18 UTC to 21 at 03 UTC
Visibility: 0300 m
at a height of 300 ft
fog

TAF: UEEE 201100Z 2012/2118 26003MPS 3200 -SN BR SCT020 BKN070 TEMPO 2018/2103 0300 FG VV003

Weather observations and forecasts of more than 4000 airports (METAR and TAF reports).

The available stations are represented by yellow and red dots on the map.

Hover mouse over dot to see the name of the station.

Then click to see weather observations and forecasts.

To change the map : click on the green buttons with a black cross to zoom in, on the green button with a dash to zoom out, or on the green arrows for adjacent maps.


METAR-TAF: